Tributaries of Elbe river

river Ploučnice - water gauge Benešov nad Ploučnicí

Date and time (UTC) H (cm) Q (m3/s)
17. 9. 2019 09:10 80 3
17. 9. 2019 09:00 79 3
17. 9. 2019 08:00 80 3
17. 9. 2019 07:00 80 3
17. 9. 2019 06:00 81 4
17. 9. 2019 05:00 80 3
17. 9. 2019 04:00 80 3
17. 9. 2019 03:00 80 3
17. 9. 2019 02:00 80 3
17. 9. 2019 01:00 80 3
17. 9. 2019 00:00 80 3
16. 9. 2019 23:00 80 3
16. 9. 2019 22:00 80 3
16. 9. 2019 21:00 80 3

H - vodni stav, Q - discharge

river Ohře - water gauge Louny

Date and time (UTC) H (cm) Q (m3/s)
17. 9. 2019 09:10 169 9
17. 9. 2019 09:00 169 9
17. 9. 2019 08:00 169 9
17. 9. 2019 07:00 170 9
17. 9. 2019 06:00 170 9
17. 9. 2019 05:00 170 9
17. 9. 2019 04:00 169 9
17. 9. 2019 03:00 170 9
17. 9. 2019 02:00 170 9
17. 9. 2019 01:00 170 9
17. 9. 2019 00:00 170 9
16. 9. 2019 23:00 169 9
16. 9. 2019 22:00 169 9
16. 9. 2019 21:00 169 9

H - vodni stav, Q - discharge

Vraňany

Date and time (UTC) H (cm) Q (m3/s)
17. 9. 2019 09:20 1 46
17. 9. 2019 09:00 3 47
17. 9. 2019 08:00 7 51
17. 9. 2019 07:00 15 57
17. 9. 2019 06:00 12 55
17. 9. 2019 05:00 10 53
17. 9. 2019 04:00 14 56
17. 9. 2019 03:00 14 56
17. 9. 2019 02:00 14 56
17. 9. 2019 01:00 20 62
17. 9. 2019 00:00 23 65
16. 9. 2019 23:00 17 59
16. 9. 2019 22:00 18 60
16. 9. 2019 21:00 15 57

H - vodni stav, Q - discharge

river Jizera - water gauge Předměřice

Date and time (UTC) H (cm) Q (m3/s)
17. 9. 2019 09:10 115 6
17. 9. 2019 09:00 113 6
17. 9. 2019 08:00 105 3
17. 9. 2019 07:00 107 4
17. 9. 2019 06:00 110 5
17. 9. 2019 05:00 101 2
17. 9. 2019 04:00 103 3
17. 9. 2019 03:00 115 6
17. 9. 2019 02:00 117 7
17. 9. 2019 01:00 118 7
17. 9. 2019 00:00 123 9
16. 9. 2019 23:00 109 5
16. 9. 2019 22:00 100 2
16. 9. 2019 21:00 107 4

H - vodni stav, Q - discharge

river Cidlina - water gauge Sány

Date and time (UTC) H (cm) Q (m3/s)
17. 9. 2019 09:00 13 0
17. 9. 2019 08:00 13 0
17. 9. 2019 07:00 13 0
17. 9. 2019 06:00 13 0
17. 9. 2019 05:00 13 0
17. 9. 2019 04:00 13 0
17. 9. 2019 03:00 13 0
17. 9. 2019 02:00 13 0
17. 9. 2019 01:00 13 0
17. 9. 2019 00:00 13 0
16. 9. 2019 23:00 13 0
16. 9. 2019 22:00 13 0
16. 9. 2019 21:00 12 0

H - vodni stav, Q - discharge

river Orlice - water gauge Týniště nad Orlicí

Date and time (UTC) H (cm) Q (m3/s)
17. 9. 2019 09:00 60 5
17. 9. 2019 08:00 59 4
17. 9. 2019 07:00 58 4
17. 9. 2019 06:00 59 4
17. 9. 2019 05:00 60 5
17. 9. 2019 04:00 60 5
17. 9. 2019 03:00 60 5
17. 9. 2019 02:00 59 4
17. 9. 2019 01:00 58 4
17. 9. 2019 00:00 56 4
16. 9. 2019 23:00 56 4
16. 9. 2019 22:00 58 4
16. 9. 2019 21:00 59 4

H - vodni stav, Q - discharge
Source data
Labe Basin Vltava Basin ČHMÚ